createdAt,value
2023-03-26T00:01:21.394Z,0.50
2023-03-26T00:04:25.489Z,0.50
2023-03-26T00:07:28.055Z,0.52
2023-03-26T00:10:29.868Z,0.47
2023-03-26T00:13:32.229Z,0.50
2023-03-26T00:16:34.042Z,0.50
2023-03-26T00:19:35.728Z,0.50
2023-03-26T00:22:37.407Z,0.50
2023-03-26T00:25:41.559Z,0.55
2023-03-26T00:28:43.845Z,0.50
2023-03-26T00:31:46.551Z,0.50
2023-03-26T00:34:48.425Z,0.60
2023-03-26T00:37:51.610Z,0.40
2023-03-26T00:40:53.938Z,0.50
2023-03-26T00:43:57.735Z,0.40
2023-03-26T00:46:59.453Z,0.60
2023-03-26T00:50:01.498Z,0.70
2023-03-26T00:53:03.285Z,0.52
2023-03-26T00:56:06.576Z,0.50
2023-03-26T00:59:09.296Z,0.57
2023-03-26T01:02:17.287Z,0.70
2023-03-26T01:06:08.613Z,0.70
2023-03-26T01:09:19.699Z,0.70
2023-03-26T01:12:24.393Z,0.80
2023-03-26T01:15:30.077Z,0.60
2023-03-26T01:18:33.994Z,0.57
2023-03-26T01:21:36.181Z,0.60
2023-03-26T01:24:39.558Z,0.50
2023-03-26T01:27:54.918Z,0.50
2023-03-26T01:31:10.027Z,0.57
2023-03-26T01:34:37.472Z,0.60
2023-03-26T01:38:01.406Z,0.60
2023-03-26T01:41:34.167Z,0.60
2023-03-26T01:44:43.673Z,0.68
2023-03-26T01:47:46.601Z,0.60
2023-03-26T01:50:51.344Z,0.60
2023-03-26T01:53:54.007Z,0.68
2023-03-26T01:56:58.474Z,0.57
2023-03-26T02:00:18.335Z,0.60
2023-03-26T02:03:34.787Z,0.40
2023-03-26T02:06:45.762Z,0.60
2023-03-26T02:09:54.044Z,0.50
2023-03-26T02:12:57.786Z,0.70
2023-03-26T02:16:01.949Z,0.60
2023-03-26T02:19:04.495Z,0.57
2023-03-26T02:22:06.406Z,0.60
2023-03-26T02:25:13.584Z,0.60
2023-03-26T02:28:17.017Z,0.60
2023-03-26T02:31:19.509Z,0.60
2023-03-26T02:34:24.315Z,0.57
2023-03-26T02:37:26.107Z,0.70
2023-03-26T02:40:27.789Z,0.65
2023-03-26T02:43:29.582Z,0.70
2023-03-26T02:46:33.195Z,0.50
2023-03-26T02:49:35.095Z,0.50
2023-03-26T02:52:36.700Z,0.95
2023-03-26T02:55:38.378Z,0.80
2023-03-26T02:58:40.007Z,0.60
2023-03-26T03:01:43.101Z,0.70
2023-03-26T03:04:45.148Z,0.80
2023-03-26T03:07:46.865Z,0.50
2023-03-26T03:10:57.847Z,0.57
2023-03-26T03:13:59.467Z,0.60
2023-03-26T03:17:01.224Z,0.70
2023-03-26T03:20:04.481Z,0.50
2023-03-26T03:23:06.179Z,0.60
2023-03-26T03:26:15.653Z,0.80
2023-03-26T03:29:17.410Z,0.60
2023-03-26T03:32:19.421Z,0.70
2023-03-26T03:35:21.223Z,0.40
2023-03-26T03:38:22.884Z,0.50
2023-03-26T03:41:24.474Z,0.60
2023-03-26T03:44:26.179Z,0.50
2023-03-26T03:47:27.967Z,0.60
2023-03-26T03:50:29.642Z,0.50
2023-03-26T03:53:31.437Z,0.57
2023-03-26T03:56:33.081Z,0.50
2023-03-26T03:59:34.721Z,0.60
2023-03-26T04:02:36.461Z,0.60
2023-03-26T04:05:38.724Z,0.60
2023-03-26T04:08:40.850Z,0.68
2023-03-26T04:11:42.427Z,0.52
2023-03-26T04:14:44.324Z,0.50
2023-03-26T04:17:45.949Z,0.60
2023-03-26T04:20:47.733Z,0.57
2023-03-26T04:23:49.345Z,0.57
2023-03-26T04:26:51.027Z,0.60
2023-03-26T04:29:52.668Z,0.60
2023-03-26T04:32:58.470Z,0.60
2023-03-26T04:36:05.273Z,0.60
2023-03-26T04:39:06.999Z,0.80
2023-03-26T04:42:11.162Z,0.70
2023-03-26T04:45:15.006Z,1.10
2023-03-26T04:48:16.669Z,3.40
2023-03-26T04:51:22.041Z,2.57
2023-03-26T04:54:24.650Z,4.13
2023-03-26T04:57:34.826Z,3.63
2023-03-26T05:00:36.496Z,2.42
2023-03-26T05:03:39.630Z,1.10
2023-03-26T05:06:41.825Z,0.90
2023-03-26T05:09:43.452Z,1.00
2023-03-26T05:12:45.169Z,0.75
2023-03-26T05:15:46.813Z,0.70
2023-03-26T05:18:48.398Z,0.50
2023-03-26T05:21:50.034Z,0.50
2023-03-26T05:24:52.212Z,0.70
2023-03-26T05:27:53.880Z,0.55
2023-03-26T05:30:55.839Z,0.50
2023-03-26T05:34:00.523Z,0.50
2023-03-26T05:37:04.391Z,0.50
2023-03-26T05:40:12.302Z,0.63
2023-03-26T05:43:13.914Z,0.70
2023-03-26T05:46:15.988Z,0.50
2023-03-26T05:49:17.736Z,0.70
2023-03-26T05:52:19.406Z,0.67
2023-03-26T05:55:22.042Z,0.60
2023-03-26T05:58:30.422Z,0.70
2023-03-26T06:01:32.042Z,0.70
2023-03-26T06:04:33.723Z,0.80
2023-03-26T06:07:36.200Z,0.60
2023-03-26T06:10:39.172Z,0.70
2023-03-26T06:13:41.925Z,0.77
2023-03-26T06:16:43.544Z,0.80
2023-03-26T06:19:45.164Z,1.00
2023-03-26T06:22:46.962Z,0.70
2023-03-26T06:25:49.056Z,0.70
2023-03-26T06:28:51.080Z,0.70
2023-03-26T06:31:52.992Z,0.80
2023-03-26T06:34:54.641Z,0.88
2023-03-26T06:37:57.181Z,0.70
2023-03-26T06:41:03.715Z,0.70
2023-03-26T06:44:05.369Z,0.77
2023-03-26T06:47:07.106Z,0.77
2023-03-26T06:50:11.559Z,0.82
2023-03-26T06:53:13.140Z,0.80
2023-03-26T06:56:14.847Z,0.90
2023-03-26T06:59:16.474Z,0.90
2023-03-26T07:02:18.126Z,0.90
2023-03-26T07:05:19.866Z,1.10
2023-03-26T07:08:22.019Z,1.10
2023-03-26T07:11:25.677Z,1.10
2023-03-26T07:14:32.648Z,1.00
2023-03-26T07:17:34.336Z,1.15
2023-03-26T07:20:36.404Z,1.20
2023-03-26T07:23:38.466Z,1.00
2023-03-26T07:26:43.060Z,1.08
2023-03-26T07:30:04.451Z,0.90
2023-03-26T07:33:21.368Z,1.00
2023-03-26T07:36:38.161Z,0.90
2023-03-26T07:39:54.867Z,1.00
2023-03-26T07:43:05.517Z,0.90
2023-03-26T07:46:12.060Z,0.80
2023-03-26T07:49:14.506Z,0.88
2023-03-26T07:52:16.421Z,0.85
2023-03-26T07:55:18.716Z,0.80
2023-03-26T07:58:40.546Z,0.75
2023-03-26T08:02:16.296Z,0.80
2023-03-26T08:05:21.113Z,0.90
2023-03-26T08:08:31.291Z,1.00
2023-03-26T08:11:45.346Z,0.90
2023-03-26T08:15:03.071Z,1.10
2023-03-26T08:18:46.534Z,1.10
2023-03-26T08:21:54.397Z,0.90
2023-03-26T08:25:05.232Z,0.90
2023-03-26T08:28:07.533Z,1.00
2023-03-26T08:31:13.724Z,1.00
2023-03-26T08:34:15.878Z,1.10
2023-03-26T08:37:17.465Z,1.13
2023-03-26T08:41:02.761Z,1.00
2023-03-26T08:44:32.111Z,0.80
2023-03-26T08:47:59.303Z,0.90
2023-03-26T08:51:10.627Z,0.80
2023-03-26T08:54:34.142Z,0.68
2023-03-26T08:58:08.922Z,0.90
2023-03-26T09:01:37.976Z,0.97
2023-03-26T09:05:15.041Z,0.80
2023-03-26T09:08:53.730Z,0.70
2023-03-26T09:12:14.162Z,0.80
2023-03-26T09:15:48.915Z,0.80
2023-03-26T09:19:22.965Z,0.77
2023-03-26T09:22:33.726Z,3.72
2023-03-26T09:25:51.746Z,2.33
2023-03-26T09:29:13.828Z,1.50
2023-03-26T09:32:38.760Z,1.00
2023-03-26T09:35:54.940Z,1.40
2023-03-26T09:39:08.802Z,1.75
2023-03-26T09:42:40.480Z,8.52
2023-03-26T09:45:52.674Z,2.60
2023-03-26T09:49:04.187Z,1.90
2023-03-26T09:52:14.877Z,1.40
2023-03-26T09:55:20.626Z,1.40
2023-03-26T09:58:56.790Z,1.88
2023-03-26T10:02:13.617Z,1.50
2023-03-26T10:05:52.137Z,3.22
2023-03-26T10:09:07.442Z,1.00
2023-03-26T10:12:08.974Z,1.98
2023-03-26T10:15:26.275Z,2.70
2023-03-26T10:18:44.669Z,1.45
2023-03-26T10:22:05.460Z,1.00
2023-03-26T10:25:16.657Z,2.40
2023-03-26T10:28:36.327Z,2.72
2023-03-26T10:32:15.414Z,1.30
2023-03-26T10:35:28.894Z,1.55
2023-03-26T10:38:51.330Z,1.08
2023-03-26T10:42:06.621Z,1.00
2023-03-26T10:45:20.871Z,1.00
2023-03-26T10:48:34.554Z,1.10
2023-03-26T10:51:39.003Z,1.10
2023-03-26T10:54:52.692Z,1.10
2023-03-26T10:57:54.448Z,1.00
2023-03-26T11:01:03.420Z,0.90
2023-03-26T11:04:18.241Z,1.10
2023-03-26T11:07:48.147Z,1.00
2023-03-26T11:10:49.747Z,0.90
2023-03-26T11:14:31.696Z,0.90
2023-03-26T11:17:43.992Z,0.90
2023-03-26T11:20:50.714Z,0.98
2023-03-26T11:24:07.575Z,1.30
2023-03-26T11:27:54.652Z,1.20
2023-03-26T11:31:08.915Z,1.30
2023-03-26T11:34:17.618Z,1.20
2023-03-26T11:37:39.180Z,1.25
2023-03-26T11:40:45.222Z,1.15
2023-03-26T11:43:52.369Z,1.20
2023-03-26T11:47:01.368Z,1.10
2023-03-26T11:50:07.129Z,1.00
2023-03-26T11:53:18.036Z,1.15
2023-03-26T11:57:05.852Z,1.10
2023-03-26T12:00:17.318Z,1.05
2023-03-26T12:03:20.897Z,1.00
2023-03-26T12:06:26.039Z,0.90
2023-03-26T12:09:29.076Z,0.95
2023-03-26T12:12:40.541Z,0.80
2023-03-26T12:15:43.806Z,1.00
2023-03-26T12:18:47.591Z,0.80
2023-03-26T12:21:51.727Z,0.80
2023-03-26T12:25:15.769Z,1.15
2023-03-26T12:28:19.515Z,0.82
2023-03-26T12:31:21.237Z,1.00
2023-03-26T12:34:31.112Z,0.90
2023-03-26T12:37:38.627Z,0.70
2023-03-26T12:40:42.581Z,0.90
2023-03-26T12:44:46.501Z,0.70
2023-03-26T12:48:00.251Z,0.70
2023-03-26T12:50:48.507Z,0.70
2023-03-26T12:54:16.618Z,0.70
2023-03-26T12:57:35.243Z,0.60
2023-03-26T13:01:02.669Z,0.60
2023-03-26T13:04:30.489Z,0.60
2023-03-26T13:07:47.385Z,0.83
2023-03-26T13:11:10.412Z,0.70
2023-03-26T13:14:20.872Z,0.70
2023-03-26T13:17:56.764Z,0.60
2023-03-26T13:21:17.129Z,0.77
2023-03-26T13:24:34.004Z,0.50
2023-03-26T13:28:01.743Z,0.60
2023-03-26T13:31:25.980Z,0.65
2023-03-26T13:34:33.404Z,0.60
2023-03-26T13:37:53.655Z,0.70
2023-03-26T13:41:09.588Z,0.70
2023-03-26T13:44:38.086Z,0.60
2023-03-26T13:47:45.905Z,0.80
2023-03-26T13:50:58.056Z,0.80
2023-03-26T13:54:36.941Z,0.70
2023-03-26T13:58:06.349Z,0.70
2023-03-26T14:01:17.880Z,0.70
2023-03-26T14:04:41.055Z,0.80
2023-03-26T14:07:42.666Z,0.88
2023-03-26T14:10:53.997Z,0.60
2023-03-26T14:14:04.056Z,0.70
2023-03-26T14:17:20.688Z,0.70
2023-03-26T14:20:44.676Z,0.80
2023-03-26T14:24:14.100Z,0.70
2023-03-26T14:27:40.928Z,0.80
2023-03-26T14:31:11.344Z,0.60
2023-03-26T14:34:13.009Z,0.70
2023-03-26T14:37:33.057Z,0.70
2023-03-26T14:40:53.249Z,0.50
2023-03-26T14:44:26.740Z,0.70
2023-03-26T14:47:29.307Z,0.70
2023-03-26T14:50:42.608Z,0.70
2023-03-26T14:53:59.066Z,1.00
2023-03-26T14:57:26.343Z,0.70
2023-03-26T15:00:51.306Z,0.80
2023-03-26T15:04:22.130Z,0.70
2023-03-26T15:07:41.757Z,0.50
2023-03-26T15:11:02.162Z,0.70
2023-03-26T15:14:58.365Z,0.50
2023-03-26T15:18:00.224Z,0.60
2023-03-26T15:21:26.502Z,0.60
2023-03-26T15:24:41.820Z,0.50
2023-03-26T15:28:21.114Z,0.50
2023-03-26T15:32:01.603Z,0.50
2023-03-26T15:35:25.096Z,0.70
2023-03-26T15:38:35.615Z,0.90
2023-03-26T15:41:56.110Z,0.60
2023-03-26T15:45:06.738Z,0.60
2023-03-26T15:48:11.954Z,0.60
2023-03-26T15:51:28.831Z,0.77
2023-03-26T15:54:39.509Z,0.60
2023-03-26T15:57:56.881Z,0.60
2023-03-26T16:01:09.056Z,0.60
2023-03-26T16:04:29.274Z,0.60
2023-03-26T16:07:47.228Z,0.80
2023-03-26T16:10:57.897Z,0.70
2023-03-26T16:14:35.068Z,0.70
2023-03-26T16:18:06.976Z,0.70
2023-03-26T16:21:32.319Z,0.80
2023-03-26T16:24:38.130Z,1.00
2023-03-26T16:27:39.952Z,0.80
2023-03-26T16:30:42.159Z,0.73
2023-03-26T16:33:49.806Z,0.80
2023-03-26T16:36:51.920Z,0.80
2023-03-26T16:39:54.336Z,0.88
2023-03-26T16:43:24.265Z,0.80
2023-03-26T16:46:38.347Z,0.82
2023-03-26T16:50:14.195Z,0.90
2023-03-26T16:53:29.928Z,0.80
2023-03-26T16:56:53.703Z,0.77
2023-03-26T17:00:31.400Z,0.80
2023-03-26T17:03:58.267Z,0.90
2023-03-26T17:07:03.380Z,1.00
2023-03-26T17:10:15.868Z,0.80
2023-03-26T17:13:36.283Z,0.80
2023-03-26T17:16:37.911Z,0.90
2023-03-26T17:20:00.808Z,1.20
2023-03-26T17:23:27.236Z,1.40
2023-03-26T17:26:42.483Z,1.45
2023-03-26T17:30:05.125Z,1.10
2023-03-26T17:33:14.174Z,1.10
2023-03-26T17:36:29.856Z,1.15
2023-03-26T17:39:40.784Z,1.13
2023-03-26T17:43:02.165Z,1.10
2023-03-26T17:46:14.244Z,1.00
2023-03-26T17:49:22.203Z,1.00
2023-03-26T17:52:40.915Z,1.17
2023-03-26T17:55:44.148Z,1.13
2023-03-26T17:58:58.645Z,1.00
2023-03-26T18:02:16.725Z,0.95
2023-03-26T18:05:18.831Z,1.10
2023-03-26T18:08:51.610Z,1.33
2023-03-26T18:12:21.564Z,1.25
2023-03-26T18:15:23.268Z,1.20
2023-03-26T18:18:37.213Z,1.30
2023-03-26T18:21:40.166Z,1.60
2023-03-26T18:24:42.196Z,1.15
2023-03-26T18:27:43.928Z,1.52
2023-03-26T18:30:48.279Z,1.20
2023-03-26T18:33:54.529Z,1.30
2023-03-26T18:37:11.412Z,1.47
2023-03-26T18:40:21.454Z,1.17
2023-03-26T18:43:34.478Z,1.38
2023-03-26T18:46:36.921Z,1.27
2023-03-26T18:49:38.616Z,1.40
2023-03-26T18:52:41.843Z,1.40
2023-03-26T18:55:43.970Z,1.40
2023-03-26T18:58:53.725Z,1.40
2023-03-26T19:01:59.904Z,1.30
2023-03-26T19:05:03.574Z,1.20
2023-03-26T19:08:06.727Z,1.23
2023-03-26T19:11:09.949Z,1.40
2023-03-26T19:14:17.205Z,1.30
2023-03-26T19:17:19.013Z,1.38
2023-03-26T19:20:28.036Z,1.48
2023-03-26T19:23:37.881Z,1.33
2023-03-26T19:26:39.880Z,1.40
2023-03-26T19:29:43.632Z,1.50
2023-03-26T19:32:53.940Z,1.30
2023-03-26T19:36:24.368Z,1.30
2023-03-26T19:39:37.705Z,1.40
2023-03-26T19:42:43.062Z,1.30
2023-03-26T19:46:00.181Z,1.30
2023-03-26T19:49:04.341Z,1.88
2023-03-26T19:52:15.030Z,1.58
2023-03-26T19:55:24.158Z,1.57
2023-03-26T19:58:27.202Z,1.70
2023-03-26T20:01:30.460Z,1.90
2023-03-26T20:04:33.019Z,1.90
2023-03-26T20:07:36.414Z,2.08
2023-03-26T20:10:38.162Z,2.20
2023-03-26T20:13:39.847Z,2.10
2023-03-26T20:16:43.844Z,2.13
2023-03-26T20:19:49.695Z,2.03
2023-03-26T20:22:53.817Z,1.90
2023-03-26T20:25:55.708Z,2.00
2023-03-26T20:28:58.898Z,2.00
2023-03-26T20:32:00.825Z,2.08
2023-03-26T20:35:02.396Z,1.90
2023-03-26T20:38:05.292Z,2.22
2023-03-26T20:41:12.372Z,2.10
2023-03-26T20:44:17.062Z,2.20
2023-03-26T20:47:18.683Z,2.45
2023-03-26T20:50:23.212Z,2.03
2023-03-26T20:53:24.963Z,2.25
2023-03-26T20:56:27.093Z,2.20
2023-03-26T20:59:29.116Z,2.50
2023-03-26T21:02:30.847Z,2.28
2023-03-26T21:05:34.189Z,2.40
2023-03-26T21:08:41.538Z,2.50
2023-03-26T21:12:00.426Z,2.40
2023-03-26T21:15:07.233Z,2.50
2023-03-26T21:18:12.595Z,1.98
2023-03-26T21:21:31.178Z,1.75
2023-03-26T21:24:58.233Z,1.20
2023-03-26T21:28:42.211Z,1.10
2023-03-26T21:31:44.488Z,1.20
2023-03-26T21:34:57.622Z,1.33
2023-03-26T21:38:01.580Z,1.45
2023-03-26T21:41:03.778Z,1.40
2023-03-26T21:44:05.845Z,1.27
2023-03-26T21:47:09.761Z,1.00
2023-03-26T21:50:15.130Z,0.90
2023-03-26T21:53:17.252Z,0.80
2023-03-26T21:56:34.563Z,0.95
2023-03-26T22:00:19.957Z,0.80
2023-03-26T22:03:31.560Z,0.80
2023-03-26T22:06:50.877Z,0.90
2023-03-26T22:09:52.728Z,0.88
2023-03-26T22:12:54.535Z,0.70
2023-03-26T22:15:56.968Z,0.87
2023-03-26T22:18:58.641Z,0.90
2023-03-26T22:22:00.696Z,1.00
2023-03-26T22:25:02.318Z,0.98
2023-03-26T22:28:04.476Z,0.90
2023-03-26T22:31:09.694Z,0.90
2023-03-26T22:34:11.772Z,0.77
2023-03-26T22:37:13.612Z,0.90
2023-03-26T22:40:15.352Z,0.80
2023-03-26T22:43:17.001Z,0.90
2023-03-26T22:46:19.494Z,0.80
2023-03-26T22:49:21.333Z,0.80
2023-03-26T22:52:23.121Z,0.68
2023-03-26T22:55:28.445Z,0.80
2023-03-26T22:58:33.416Z,0.80
2023-03-26T23:01:36.168Z,0.70
2023-03-26T23:04:38.053Z,0.70
2023-03-26T23:07:40.178Z,0.70
2023-03-26T23:10:42.602Z,0.73
2023-03-26T23:13:45.130Z,0.88
2023-03-26T23:16:46.838Z,0.73
2023-03-26T23:19:48.656Z,0.90
2023-03-26T23:22:50.659Z,0.90
2023-03-26T23:25:52.912Z,0.90
2023-03-26T23:28:54.508Z,0.80
2023-03-26T23:31:56.200Z,0.77
2023-03-26T23:34:57.955Z,1.10
2023-03-26T23:38:02.192Z,1.08
2023-03-26T23:41:04.771Z,1.10
2023-03-26T23:44:06.380Z,1.60
2023-03-26T23:47:10.443Z,1.10
2023-03-26T23:50:12.941Z,1.20
2023-03-26T23:53:15.326Z,1.30
2023-03-26T23:56:17.511Z,1.20
2023-03-26T23:59:19.115Z,1.10
